Aeroporto :
LOGIN :

Iscrizione | Disclaimer

   EN    FR    IT 

 










Sommario :    VFR   VFR Marginale   IFR   IFR Intensivo   IFR Molto Intensivo
Visibilità : 
Base nubi : 
>= 8 km
>= 3000ft
5 / 8 km
1000 / 3000 ft
1500m / 5 km
500 / 1000 ft
800 / 1500m
200 / 500 ft
< 800m
< 200 ft
Simboli :   Temporali  Nebbia  Neve Forte  Precipitazioni Forti  Vento > 20 kt
SIGMETs :   Varie  Temporali  Ghiacco  Turbolenza  Onda orograficha  Ceneri Vulcaniche






- Altitudine del aeroporto : 242 ft
- Codice IATA : DUB


EIDW - Dublin

ULTIMO METAR :
  • 061700Z 29013KT 9999 -RA FEW012 SCT016 BKN024 11/09 Q1003 NOSIG

METARs OBSOLETI :
  • 061630Z 31017KT 9999 -RA FEW017 BKN024 11/08 Q1003 NOSIG
  • 061600Z 31016KT 9999 -RA FEW017 BKN024 11/08 Q1003 NOSIG
  • 061530Z 31014KT 9999 -RA FEW017 BKN024 11/08 Q1003 NOSIG
  • 061500Z 31016KT 9999 FEW017 BKN024 12/07 Q1003 NOSIG
  • 061430Z 32017KT 9999 FEW017 BKN022 12/08 Q1003 NOSIG
  • 061400Z 31017KT 9999 FEW017 BKN022 12/07 Q1003 NOSIG

TAF TAF EIDW
Valido dal 06 a 12 ore il 07 a 12 ore UTC


061100Z 0612/0712 30018KT 9999 SCT015 BKN020
TEMPO 0612/0619 31022G32KT
TEMPO 0612/0709 -RA BKN012
PROB30
TEMPO 0612/0702 4500 -RADZ BKN008
BECMG 0618/0620 31012KT
BECMG 0711/0712 36009KT



MetMap, La meteo Aeronautica in un colpo d'occhio ! - Copyright ORBIFLY Dicembre 2007 - Disclaimer

ORBIFLY MET'MAP TEAM :

Programmazione e sviluppo : Alexandra Zaïnal
Concezione : Baudouin d'Aumeries
Aiuto per la programmazione : Marc-Olivier Méhu
Supporto tecnico e logistico : Manuel Goepfert
Aiuto per la traduzione : Arnaldo La Scala

Contatto : metmap@orbifly.com




FONTI E CREDITI :

   NOAA